createdAt,value
2022-11-29T00:00:02.759Z,-3.60
2022-11-29T00:03:05.841Z,-3.61
2022-11-29T00:05:44.128Z,-3.61
2022-11-29T00:08:13.959Z,-3.62
2022-11-29T00:10:42.379Z,-3.64
2022-11-29T00:13:10.968Z,-3.67
2022-11-29T00:15:40.300Z,-3.72
2022-11-29T00:18:09.119Z,-3.75
2022-11-29T00:20:40.066Z,-3.78
2022-11-29T00:23:08.880Z,-3.81
2022-11-29T00:25:38.884Z,-3.83
2022-11-29T00:28:07.219Z,-3.87
2022-11-29T00:30:36.950Z,-3.89
2022-11-29T00:33:09.602Z,-3.91
2022-11-29T00:35:39.658Z,-3.94
2022-11-29T00:38:13.647Z,-3.96
2022-11-29T00:40:51.080Z,-4.00
2022-11-29T00:43:19.387Z,-4.02
2022-11-29T00:46:03.822Z,-4.06
2022-11-29T00:48:37.437Z,-4.09
2022-11-29T00:51:07.880Z,-4.12
2022-11-29T00:53:40.283Z,-4.14
2022-11-29T00:56:08.963Z,-4.17
2022-11-29T00:58:46.816Z,-4.19
2022-11-29T01:01:22.064Z,-4.20
2022-11-29T01:03:50.654Z,-4.23
2022-11-29T01:06:28.091Z,-4.27
2022-11-29T01:08:56.770Z,-4.30
2022-11-29T01:11:28.574Z,-4.33
2022-11-29T01:14:01.025Z,-4.36
2022-11-29T01:16:31.960Z,-4.38
2022-11-29T01:19:00.791Z,-4.40
2022-11-29T01:21:29.347Z,-4.43
2022-11-29T01:23:57.648Z,-4.45
2022-11-29T01:26:29.344Z,-4.48
2022-11-29T01:28:59.422Z,-4.50
2022-11-29T01:31:31.690Z,-4.51
2022-11-29T01:34:02.165Z,-4.53
2022-11-29T01:36:31.846Z,-4.55
2022-11-29T01:39:02.191Z,-4.58
2022-11-29T01:41:33.715Z,-4.61
2022-11-29T01:44:02.001Z,-4.65
2022-11-29T01:46:39.491Z,-4.69
2022-11-29T01:49:16.880Z,-4.70
2022-11-29T01:51:51.481Z,-4.72
2022-11-29T01:54:21.348Z,-4.74
2022-11-29T01:56:52.292Z,-4.77
2022-11-29T01:59:23.863Z,-4.81
2022-11-29T02:01:53.097Z,-4.85
2022-11-29T02:04:21.544Z,-4.86
2022-11-29T02:06:49.786Z,-4.88
2022-11-29T02:09:23.639Z,-4.88
2022-11-29T02:12:13.543Z,-4.90
2022-11-29T02:14:52.904Z,-4.91
2022-11-29T02:17:39.012Z,-4.94
2022-11-29T02:20:23.038Z,-4.95
2022-11-29T02:22:51.241Z,-4.96
2022-11-29T02:25:33.476Z,-4.98
2022-11-29T02:28:30.451Z,-5.01
2022-11-29T02:31:17.241Z,-5.04
2022-11-29T02:34:11.156Z,-5.05
2022-11-29T02:36:42.325Z,-5.09
2022-11-29T02:39:35.457Z,-5.10
2022-11-29T02:42:55.688Z,-5.11
2022-11-29T02:45:42.717Z,-5.14
2022-11-29T02:48:36.245Z,-5.16
2022-11-29T02:51:23.358Z,-5.19
2022-11-29T02:53:55.802Z,-5.21
2022-11-29T02:56:56.245Z,-5.23
2022-11-29T02:59:33.541Z,-5.27
2022-11-29T03:02:25.253Z,-5.30
2022-11-29T03:05:19.009Z,-5.33
2022-11-29T03:08:15.583Z,-5.36
2022-11-29T03:10:58.943Z,-5.39
2022-11-29T03:14:05.962Z,-5.41
2022-11-29T03:16:38.336Z,-5.44
2022-11-29T03:19:47.916Z,-5.46
2022-11-29T03:22:26.952Z,-5.48
2022-11-29T03:24:59.243Z,-5.51
2022-11-29T03:27:48.118Z,-5.52
2022-11-29T03:30:19.312Z,-5.55
2022-11-29T03:33:06.444Z,-5.56
2022-11-29T03:35:41.416Z,-5.57
2022-11-29T03:38:15.488Z,-5.58
2022-11-29T03:41:05.214Z,-5.59
2022-11-29T03:43:41.156Z,-5.58
2022-11-29T03:46:21.762Z,-5.59
2022-11-29T03:48:57.738Z,-5.60
2022-11-29T03:51:54.846Z,-5.62
2022-11-29T03:54:42.388Z,-5.64
2022-11-29T03:57:16.424Z,-5.67
2022-11-29T03:59:52.619Z,-5.68
2022-11-29T04:03:00.964Z,-5.70
2022-11-29T04:05:57.076Z,-5.72
2022-11-29T04:08:40.468Z,-5.74
2022-11-29T04:11:32.988Z,-5.76
2022-11-29T04:14:20.483Z,-5.79
2022-11-29T04:17:01.256Z,-5.82
2022-11-29T04:19:42.380Z,-5.85
2022-11-29T04:22:31.337Z,-5.86
2022-11-29T04:25:34.382Z,-5.88
2022-11-29T04:28:38.024Z,-5.89
2022-11-29T04:31:18.581Z,-5.91
2022-11-29T04:33:53.105Z,-5.92
2022-11-29T04:36:49.292Z,-5.93
2022-11-29T04:39:42.763Z,-5.95
2022-11-29T04:42:25.947Z,-5.97
2022-11-29T04:45:12.897Z,-5.98
2022-11-29T04:48:05.392Z,-6.00
2022-11-29T04:50:37.523Z,-6.02
2022-11-29T04:53:05.862Z,-6.02
2022-11-29T04:55:50.149Z,-6.01
2022-11-29T04:58:18.389Z,-6.01
2022-11-29T05:01:14.758Z,-6.01
2022-11-29T05:04:01.209Z,-6.03
2022-11-29T05:06:39.598Z,-6.06
2022-11-29T05:09:19.260Z,-6.06
2022-11-29T05:12:06.505Z,-6.06
2022-11-29T05:15:02.575Z,-6.06
2022-11-29T05:17:33.468Z,-6.06
2022-11-29T05:20:20.887Z,-6.06
2022-11-29T05:22:52.225Z,-6.07
2022-11-29T05:25:35.853Z,-6.08
2022-11-29T05:28:13.733Z,-6.11
2022-11-29T05:31:20.703Z,-6.13
2022-11-29T05:34:36.779Z,-6.17
2022-11-29T05:37:26.151Z,-6.19
2022-11-29T05:40:18.607Z,-6.21
2022-11-29T05:42:49.638Z,-6.24
2022-11-29T05:45:30.746Z,-6.26
2022-11-29T05:48:20.995Z,-6.28
2022-11-29T05:51:16.533Z,-6.29
2022-11-29T05:53:44.847Z,-6.30
2022-11-29T05:56:25.556Z,-6.31
2022-11-29T05:59:08.571Z,-6.32
2022-11-29T06:01:45.882Z,-6.29
2022-11-29T06:04:21.968Z,-6.27
2022-11-29T06:07:03.891Z,-6.25
2022-11-29T06:09:35.676Z,-6.23
2022-11-29T06:12:06.865Z,-6.22
2022-11-29T06:15:13.930Z,-6.23
2022-11-29T06:17:55.260Z,-6.23
2022-11-29T06:20:42.882Z,-6.21
2022-11-29T06:23:30.209Z,-6.22
2022-11-29T06:26:17.289Z,-6.21
2022-11-29T06:29:04.182Z,-6.19
2022-11-29T06:31:39.895Z,-6.19
2022-11-29T06:34:30.515Z,-6.19
2022-11-29T06:37:20.154Z,-6.18
2022-11-29T06:39:48.653Z,-6.17
2022-11-29T06:42:17.062Z,-6.16
2022-11-29T06:44:46.098Z,-6.17
2022-11-29T06:47:37.762Z,-6.18
2022-11-29T06:50:27.591Z,-6.19
2022-11-29T06:53:01.670Z,-6.17
2022-11-29T06:55:59.280Z,-6.13
2022-11-29T06:58:36.174Z,-6.09
2022-11-29T07:01:32.272Z,-6.03
2022-11-29T07:04:00.519Z,-5.97
2022-11-29T07:06:30.087Z,-5.90
2022-11-29T07:09:13.431Z,-5.81
2022-11-29T07:11:43.040Z,-5.71
2022-11-29T07:14:12.215Z,-5.62
2022-11-29T07:17:11.875Z,-5.54
2022-11-29T07:19:40.161Z,-5.47
2022-11-29T07:22:22.715Z,-5.39
2022-11-29T07:25:15.642Z,-5.32
2022-11-29T07:27:50.089Z,-5.24
2022-11-29T07:30:29.741Z,-5.17
2022-11-29T07:33:03.868Z,-5.12
2022-11-29T07:35:49.248Z,-5.10
2022-11-29T07:38:47.415Z,-5.07
2022-11-29T07:41:29.535Z,-5.04
2022-11-29T07:44:00.834Z,-4.98
2022-11-29T07:46:29.265Z,-4.89
2022-11-29T07:48:57.693Z,-4.82
2022-11-29T07:51:26.003Z,-4.73
2022-11-29T07:53:54.330Z,-4.68
2022-11-29T07:56:22.708Z,-4.61
2022-11-29T07:58:51.097Z,-4.52
2022-11-29T08:01:19.490Z,-4.45
2022-11-29T08:03:47.762Z,-4.35
2022-11-29T08:06:16.033Z,-4.28
2022-11-29T08:08:44.629Z,-4.21
2022-11-29T08:11:13.087Z,-4.12
2022-11-29T08:13:41.351Z,-4.02
2022-11-29T08:16:15.226Z,-4.02
2022-11-29T08:18:43.993Z,-4.09
2022-11-29T08:21:18.146Z,-4.08
2022-11-29T08:23:48.100Z,-3.99
2022-11-29T08:26:18.087Z,-3.89
2022-11-29T08:28:52.273Z,-3.78
2022-11-29T08:31:21.786Z,-3.65
2022-11-29T08:33:50.117Z,-3.57
2022-11-29T08:36:20.326Z,-3.53
2022-11-29T08:38:48.688Z,-3.54
2022-11-29T08:41:18.477Z,-3.48
2022-11-29T08:43:46.715Z,-3.43
2022-11-29T08:46:18.613Z,-3.48
2022-11-29T08:48:48.547Z,-3.49
2022-11-29T08:51:16.980Z,-3.50
2022-11-29T08:53:46.827Z,-3.50
2022-11-29T08:57:10.307Z,-3.41
2022-11-29T08:59:09.720Z,-3.33
2022-11-29T09:01:37.953Z,-3.27
2022-11-29T09:04:08.076Z,-3.27
2022-11-29T09:06:41.703Z,-3.30
2022-11-29T09:09:10.444Z,-3.23
2022-11-29T09:11:38.727Z,-3.20
2022-11-29T09:14:08.772Z,-3.18
2022-11-29T09:16:38.850Z,-3.15
2022-11-29T09:19:08.121Z,-3.12
2022-11-29T09:21:37.096Z,-3.04
2022-11-29T09:24:06.802Z,-2.97
2022-11-29T09:26:38.214Z,-2.95
2022-11-29T09:29:07.501Z,-2.89
2022-11-29T09:31:35.840Z,-2.79
2022-11-29T09:34:04.353Z,-2.73
2022-11-29T09:36:32.895Z,-2.69
2022-11-29T09:39:03.098Z,-2.67
2022-11-29T09:42:01.259Z,-2.60
2022-11-29T09:45:04.365Z,-2.46
2022-11-29T09:48:19.585Z,-2.32
2022-11-29T09:50:54.563Z,-2.26
2022-11-29T09:53:22.899Z,-2.22
2022-11-29T09:56:13.108Z,-2.19
2022-11-29T09:59:04.972Z,-2.17
2022-11-29T10:01:40.019Z,-2.14
2022-11-29T10:04:19.404Z,-2.08
2022-11-29T10:07:07.589Z,-2.02
2022-11-29T10:10:13.725Z,-1.97
2022-11-29T10:13:02.217Z,-1.93
2022-11-29T10:15:38.664Z,-1.93
2022-11-29T10:18:38.666Z,-1.88
2022-11-29T10:21:16.453Z,-1.82
2022-11-29T10:23:59.433Z,-1.77
2022-11-29T10:26:33.592Z,-1.73
2022-11-29T10:29:04.374Z,-1.67
2022-11-29T10:31:43.021Z,-1.61
2022-11-29T10:34:18.138Z,-1.59
2022-11-29T10:37:02.766Z,-1.55
2022-11-29T10:39:43.991Z,-1.49
2022-11-29T10:42:40.508Z,-1.46
2022-11-29T10:45:19.541Z,-1.34
2022-11-29T10:47:49.521Z,-1.28
2022-11-29T10:50:21.901Z,-1.28
2022-11-29T10:52:50.203Z,-1.28
2022-11-29T10:55:18.606Z,-1.27
2022-11-29T10:58:16.682Z,-1.26
2022-11-29T11:00:58.270Z,-1.26
2022-11-29T11:03:32.832Z,-1.26
2022-11-29T11:06:22.976Z,-1.24
2022-11-29T11:09:13.344Z,-1.23
2022-11-29T11:11:50.165Z,-1.24
2022-11-29T11:14:23.812Z,-1.26
2022-11-29T11:16:54.152Z,-1.26
2022-11-29T11:19:34.476Z,-1.22
2022-11-29T11:22:04.816Z,-1.17
2022-11-29T11:24:39.357Z,-1.11
2022-11-29T11:27:08.191Z,-1.07
2022-11-29T11:29:43.247Z,-1.05
2022-11-29T11:32:20.231Z,-1.05
2022-11-29T11:35:00.035Z,-1.06
2022-11-29T11:37:33.679Z,-1.06
2022-11-29T11:40:29.385Z,-1.07
2022-11-29T11:42:59.375Z,-1.08
2022-11-29T11:45:35.087Z,-1.10
2022-11-29T11:48:13.084Z,-1.12
2022-11-29T11:50:45.484Z,-1.17
2022-11-29T11:53:36.853Z,-1.17
2022-11-29T11:56:09.703Z,-1.18
2022-11-29T11:58:45.308Z,-1.14
2022-11-29T12:01:14.901Z,-1.09
2022-11-29T12:04:12.790Z,-1.07
2022-11-29T12:06:47.519Z,-1.05
2022-11-29T12:09:25.038Z,-1.03
2022-11-29T12:12:15.886Z,-1.00
2022-11-29T12:15:40.757Z,-0.97
2022-11-29T12:18:20.888Z,-0.94
2022-11-29T12:21:27.689Z,-0.89
2022-11-29T12:23:55.864Z,-0.86
2022-11-29T12:26:56.312Z,-0.80
2022-11-29T12:29:23.374Z,-0.74
2022-11-29T12:31:58.419Z,-0.68
2022-11-29T12:34:49.299Z,-0.64
2022-11-29T12:37:43.986Z,-0.59
2022-11-29T12:40:37.377Z,-0.55
2022-11-29T12:43:34.095Z,-0.56
2022-11-29T12:46:21.414Z,-0.52
2022-11-29T12:48:55.875Z,-0.45
2022-11-29T12:52:01.652Z,-0.40
2022-11-29T12:55:17.728Z,-0.36
2022-11-29T12:58:28.910Z,-0.33
2022-11-29T13:01:31.628Z,-0.30
2022-11-29T13:04:22.639Z,-0.31
2022-11-29T13:06:53.595Z,-0.34
2022-11-29T13:10:17.660Z,-0.36
2022-11-29T13:13:19.124Z,-0.37
2022-11-29T13:16:25.067Z,-0.39
2022-11-29T13:19:19.899Z,-0.42
2022-11-29T13:22:08.334Z,-0.45
2022-11-29T13:24:42.916Z,-0.45
2022-11-29T13:27:19.888Z,-0.46
2022-11-29T13:29:49.037Z,-0.48
2022-11-29T13:32:45.564Z,-0.50
2022-11-29T13:35:44.759Z,-0.52
2022-11-29T13:38:30.647Z,-0.52
2022-11-29T13:41:00.024Z,-0.51
2022-11-29T13:43:51.758Z,-0.51
2022-11-29T13:46:44.215Z,-0.49
2022-11-29T13:49:43.048Z,-0.45
2022-11-29T13:52:28.621Z,-0.43
2022-11-29T13:55:12.043Z,-0.42
2022-11-29T13:58:16.756Z,-0.40
2022-11-29T14:00:46.123Z,-0.40
2022-11-29T14:03:38.801Z,-0.38
2022-11-29T14:06:21.940Z,-0.36
2022-11-29T14:11:53.394Z,-0.35
2022-11-29T14:14:31.937Z,-0.36
2022-11-29T14:17:18.695Z,-0.35
2022-11-29T14:20:30.684Z,-0.33
2022-11-29T14:23:05.102Z,-0.33
2022-11-29T14:25:51.670Z,-0.33
2022-11-29T14:28:25.150Z,-0.32
2022-11-29T14:30:54.434Z,-0.31
2022-11-29T14:33:27.081Z,-0.28
2022-11-29T14:36:29.544Z,-0.27
2022-11-29T14:39:16.447Z,-0.25
2022-11-29T14:41:50.972Z,-0.25
2022-11-29T14:44:24.807Z,-0.26
2022-11-29T14:47:06.980Z,-0.25
2022-11-29T14:49:45.165Z,-0.26
2022-11-29T14:52:13.480Z,-0.26
2022-11-29T14:54:56.579Z,-0.25
2022-11-29T14:57:51.341Z,-0.24
2022-11-29T15:00:36.581Z,-0.22
2022-11-29T15:03:21.715Z,-0.22
2022-11-29T15:06:09.954Z,-0.21
2022-11-29T15:08:50.210Z,-0.20
2022-11-29T15:11:32.158Z,-0.17
2022-11-29T15:14:06.611Z,-0.15
2022-11-29T15:16:46.846Z,-0.13
2022-11-29T15:19:35.632Z,-0.11
2022-11-29T15:22:11.225Z,-0.09
2022-11-29T15:25:01.399Z,-0.07
2022-11-29T15:27:29.902Z,-0.04
2022-11-29T15:30:00.087Z,-0.02
2022-11-29T15:32:32.896Z,-0.01
2022-11-29T15:35:01.530Z,0.00
2022-11-29T15:37:32.588Z,0.00
2022-11-29T15:40:10.694Z,-0.01
2022-11-29T15:42:47.404Z,0.00
2022-11-29T15:45:31.430Z,-0.01
2022-11-29T15:48:23.262Z,-0.03
2022-11-29T15:51:23.793Z,-0.05
2022-11-29T15:54:13.047Z,-0.06
2022-11-29T15:56:48.012Z,-0.07
2022-11-29T15:59:40.245Z,-0.08
2022-11-29T16:02:31.315Z,-0.08
2022-11-29T16:05:18.068Z,-0.08
2022-11-29T16:07:49.801Z,-0.10
2022-11-29T16:10:21.791Z,-0.11
2022-11-29T16:12:56.598Z,-0.13
2022-11-29T16:15:39.426Z,-0.17
2022-11-29T16:18:23.636Z,-0.19
2022-11-29T16:21:04.648Z,-0.22
2022-11-29T16:23:42.509Z,-0.23
2022-11-29T16:26:16.254Z,-0.24
2022-11-29T16:28:47.952Z,-0.24
2022-11-29T16:31:37.633Z,-0.26
2022-11-29T16:34:18.266Z,-0.28
2022-11-29T16:36:46.636Z,-0.29
2022-11-29T16:39:24.433Z,-0.30
2022-11-29T16:42:15.963Z,-0.31
2022-11-29T16:44:50.520Z,-0.34
2022-11-29T16:47:22.416Z,-0.36
2022-11-29T16:50:03.019Z,-0.39
2022-11-29T16:52:34.140Z,-0.41
2022-11-29T16:55:02.426Z,-0.44
2022-11-29T16:57:35.722Z,-0.48
2022-11-29T17:00:24.688Z,-0.51
2022-11-29T17:02:53.015Z,-0.54
2022-11-29T17:05:21.431Z,-0.56
2022-11-29T17:07:50.915Z,-0.57
2022-11-29T17:10:23.393Z,-0.56
2022-11-29T17:12:52.007Z,-0.57
2022-11-29T17:15:20.212Z,-0.59
2022-11-29T17:17:49.316Z,-0.59
2022-11-29T17:20:17.749Z,-0.59
2022-11-29T17:22:46.080Z,-0.58
2022-11-29T17:25:14.394Z,-0.57
2022-11-29T17:27:42.764Z,-0.56
2022-11-29T17:30:11.636Z,-0.54
2022-11-29T17:32:40.078Z,-0.55
2022-11-29T17:35:08.675Z,-0.54
2022-11-29T17:37:36.998Z,-0.54
2022-11-29T17:40:05.835Z,-0.53
2022-11-29T17:42:36.564Z,-0.53
2022-11-29T17:45:05.021Z,-0.52
2022-11-29T17:47:33.711Z,-0.51
2022-11-29T17:50:02.012Z,-0.51
2022-11-29T17:52:30.313Z,-0.53
2022-11-29T17:54:58.550Z,-0.54
2022-11-29T17:57:26.815Z,-0.54
2022-11-29T17:59:55.163Z,-0.54
2022-11-29T18:02:23.442Z,-0.53
2022-11-29T18:04:51.930Z,-0.55
2022-11-29T18:07:20.449Z,-0.53
2022-11-29T18:09:51.613Z,-0.53
2022-11-29T18:12:20.188Z,-0.53
2022-11-29T18:14:51.035Z,-0.51
2022-11-29T18:17:19.317Z,-0.49
2022-11-29T18:19:47.837Z,-0.46
2022-11-29T18:22:16.556Z,-0.43
2022-11-29T18:24:44.924Z,-0.42
2022-11-29T18:27:13.302Z,-0.40
2022-11-29T18:29:41.620Z,-0.39
2022-11-29T18:32:10.054Z,-0.38
2022-11-29T18:34:38.372Z,-0.39
2022-11-29T18:37:11.014Z,-0.40
2022-11-29T18:39:42.590Z,-0.40
2022-11-29T18:42:10.910Z,-0.39
2022-11-29T18:44:39.165Z,-0.38
2022-11-29T18:47:07.497Z,-0.37
2022-11-29T18:49:35.790Z,-0.36
2022-11-29T18:52:04.311Z,-0.36
2022-11-29T18:54:32.994Z,-0.35
2022-11-29T18:57:01.303Z,-0.35
2022-11-29T18:59:29.673Z,-0.35
2022-11-29T19:01:58.015Z,-0.34
2022-11-29T19:04:26.355Z,-0.34
2022-11-29T19:06:54.624Z,-0.33
2022-11-29T19:09:24.454Z,-0.33
2022-11-29T19:11:52.779Z,-0.35
2022-11-29T19:14:21.215Z,-0.36
2022-11-29T19:16:50.398Z,-0.37
2022-11-29T19:19:21.103Z,-0.38
2022-11-29T19:21:49.382Z,-0.39
2022-11-29T19:24:18.607Z,-0.41
2022-11-29T19:26:49.841Z,-0.40
2022-11-29T19:29:18.729Z,-0.41
2022-11-29T19:31:50.595Z,-0.43
2022-11-29T19:34:19.009Z,-0.45
2022-11-29T19:36:47.483Z,-0.46
2022-11-29T19:39:17.339Z,-0.46
2022-11-29T19:41:47.894Z,-0.48
2022-11-29T19:44:16.207Z,-0.49
2022-11-29T19:46:48.842Z,-0.51
2022-11-29T19:49:17.861Z,-0.52
2022-11-29T19:51:46.286Z,-0.54
2022-11-29T19:54:15.029Z,-0.55
2022-11-29T19:56:43.809Z,-0.55
2022-11-29T19:59:12.173Z,-0.54
2022-11-29T20:01:42.323Z,-0.54
2022-11-29T20:04:13.703Z,-0.54
2022-11-29T20:06:44.387Z,-0.55
2022-11-29T20:09:14.069Z,-0.55
2022-11-29T20:11:42.762Z,-0.54
2022-11-29T20:14:13.244Z,-0.53
2022-11-29T20:16:42.487Z,-0.53
2022-11-29T20:19:14.221Z,-0.54
2022-11-29T20:21:49.047Z,-0.54
2022-11-29T20:24:17.998Z,-0.54
2022-11-29T20:26:48.722Z,-0.56
2022-11-29T20:29:19.042Z,-0.56
2022-11-29T20:31:50.513Z,-0.55
2022-11-29T20:34:20.609Z,-0.56
2022-11-29T20:36:55.003Z,-0.55
2022-11-29T20:39:44.906Z,-0.56
2022-11-29T20:42:28.930Z,-0.59
2022-11-29T20:45:00.647Z,-0.60
2022-11-29T20:47:47.343Z,-0.62
2022-11-29T20:50:24.509Z,-0.63
2022-11-29T20:53:18.258Z,-0.64
2022-11-29T20:55:48.869Z,-0.65
2022-11-29T20:58:19.627Z,-0.66
2022-11-29T21:00:48.108Z,-0.67
2022-11-29T21:03:18.036Z,-0.68
2022-11-29T21:05:47.184Z,-0.68
2022-11-29T21:08:17.557Z,-0.70
2022-11-29T21:10:45.960Z,-0.72
2022-11-29T21:13:15.714Z,-0.73
2022-11-29T21:15:44.555Z,-0.73
2022-11-29T21:18:18.680Z,-0.74
2022-11-29T21:21:03.051Z,-0.78
2022-11-29T21:23:46.682Z,-0.80
2022-11-29T21:26:23.364Z,-0.82
2022-11-29T21:29:23.936Z,-0.85
2022-11-29T21:31:54.530Z,-0.87
2022-11-29T21:34:23.297Z,-0.89
2022-11-29T21:36:58.614Z,-0.91
2022-11-29T21:39:33.748Z,-0.93
2022-11-29T21:42:02.139Z,-0.94
2022-11-29T21:44:30.518Z,-0.95
2022-11-29T21:46:58.917Z,-0.94
2022-11-29T21:49:27.164Z,-0.93
2022-11-29T21:51:57.803Z,-0.94
2022-11-29T21:54:26.279Z,-0.95
2022-11-29T21:56:55.468Z,-0.95
2022-11-29T21:59:28.298Z,-0.92
2022-11-29T22:01:56.670Z,-0.91
2022-11-29T22:04:25.524Z,-0.89
2022-11-29T22:06:54.102Z,-0.87
2022-11-29T22:09:22.356Z,-0.86
2022-11-29T22:11:50.785Z,-0.84
2022-11-29T22:14:19.260Z,-0.83
2022-11-29T22:16:53.773Z,-0.81
2022-11-29T22:19:25.364Z,-0.80
2022-11-29T22:22:00.303Z,-0.80
2022-11-29T22:24:31.986Z,-0.79
2022-11-29T22:27:01.922Z,-0.78
2022-11-29T22:29:30.421Z,-0.79
2022-11-29T22:31:59.627Z,-0.80
2022-11-29T22:34:28.158Z,-0.82
2022-11-29T22:36:56.599Z,-0.81
2022-11-29T22:39:24.963Z,-0.83
2022-11-29T22:41:54.901Z,-0.85
2022-11-29T22:44:24.377Z,-0.87
2022-11-29T22:46:52.938Z,-0.90
2022-11-29T22:49:21.274Z,-0.92
2022-11-29T22:51:49.641Z,-0.95
2022-11-29T22:54:18.151Z,-0.97
2022-11-29T22:56:47.389Z,-0.99
2022-11-29T22:59:15.780Z,-0.99
2022-11-29T23:01:44.225Z,-0.99
2022-11-29T23:04:13.332Z,-0.99
2022-11-29T23:06:46.296Z,-0.99
2022-11-29T23:09:21.738Z,-0.98
2022-11-29T23:11:53.092Z,-1.00
2022-11-29T23:14:22.315Z,-1.01
2022-11-29T23:16:51.493Z,-1.01
2022-11-29T23:19:19.937Z,-1.02
2022-11-29T23:21:48.246Z,-1.03
2022-11-29T23:24:16.745Z,-1.05
2022-11-29T23:26:47.912Z,-1.07
2022-11-29T23:29:19.432Z,-1.09
2022-11-29T23:31:50.266Z,-1.09
2022-11-29T23:34:19.072Z,-1.09
2022-11-29T23:36:52.697Z,-1.09
2022-11-29T23:39:21.771Z,-1.12
2022-11-29T23:41:50.064Z,-1.13
2022-11-29T23:44:18.332Z,-1.14
2022-11-29T23:46:46.688Z,-1.15
2022-11-29T23:49:14.983Z,-1.16
2022-11-29T23:51:43.217Z,-1.17
2022-11-29T23:54:11.489Z,-1.18
2022-11-29T23:56:39.703Z,-1.18
2022-11-29T23:59:08.041Z,-1.17
